Flight Track Log - Related Links

Times and Time Zones

All times are in EDT time to prevent confusion due to time zone crossing. See the SCX396 flight status page for this flight to view local times or setup timezone preferences in your user account.

Time Position Orientation Groundspeed Altitude Reporting Facility
EDT Latitude Longitude Course Direction KTS MPH feet Rate Location/Type
Sat 08:51:22 PM 37.6810 -122.3220 54° Northeast 243 280 4,200  Level FlightAware ADS-B
Sat 08:51:47 PM 37.6970 -122.2940 54° Northeast 260 299 5,000 1,964 Climbing FlightAware ADS-B
Sat 08:52:17 PM 37.7200 -122.2550 53° Northeast 285 328 6,000 2,291 Climbing FlightAware ADS-B
Sat 08:52:42 PM 37.7450 -122.2240 44° Northeast 294 338 7,100 2,618 Climbing FlightAware ADS-B
Sat 08:53:12 PM 37.7760 -122.1950 36° Northeast 301 346 8,400 3,000 Climbing FlightAware ADS-B
Sat 08:53:52 PM 37.8220 -122.1500 38° Northeast 308 354 10,600 2,541 Climbing FlightAware ADS-B
Sat 08:54:37 PM 37.8750 -122.1000 37° Northeast 349 402 12,000 2,471 Climbing FlightAware ADS-B
Sat 08:55:17 PM 37.9290 -122.0480 37° Northeast 359 413 14,100 3,106 Climbing FlightAware ADS-B
Sat 08:56:02 PM 37.9910 -121.9890 37° Northeast 373 429 16,400 2,965 Climbing FlightAware ADS-B
Sat 08:56:42 PM 38.0470 -121.9350 37° Northeast 385 443 18,300 2,925 Climbing FlightAware ADS-B
Sat 08:57:22 PM 38.1010 -121.8740 42° Northeast 392 451 20,300 2,824 Climbing FlightAware ADS-B
Sat 08:58:07 PM 38.1380 -121.7840 62° Northeast 404 465 22,300 2,612 Climbing FlightAware ADS-B
Sat 08:58:47 PM 38.1720 -121.6980 63° Northeast 412 474 24,000 2,550 Climbing FlightAware ADS-B
Sat 08:59:27 PM 38.2070 -121.6110 63° Northeast 420 483 25,700 2,400 Climbing FlightAware ADS-B
Sat 09:00:12 PM 38.2480 -121.5060 64° Northeast 431 496 27,400 2,133 Climbing FlightAware ADS-B
Sat 09:00:57 PM 38.2860 -121.4050 64° Northeast 440 506 28,900 1,976 Climbing FlightAware ADS-B
Sat 09:01:37 PM 38.3220 -121.3110 64° Northeast 448 516 30,200 1,800 Climbing FlightAware ADS-B
Sat 09:02:17 PM 38.3580 -121.2150 64° Northeast 454 522 31,300 1,976 Climbing FlightAware ADS-B
Sat 09:03:02 PM 38.4000 -121.1050 64° Northeast 451 519 33,000 2,118 Climbing FlightAware ADS-B
Sat 09:03:42 PM 38.4350 -121.0100 65° Northeast 451 519 34,300 1,725 Climbing FlightAware ADS-B
Sat 09:04:22 PM 38.4720 -120.9130 64° Northeast 454 522 35,300 1,482 Climbing FlightAware ADS-B
Sat 09:05:07 PM 38.5110 -120.8090 64° Northeast 454 522 36,400 1,482 Climbing FlightAware ADS-B
Sat 09:05:47 PM 38.5470 -120.7100 65° Northeast 455 524 37,400 1,500 Climbing FlightAware ADS-B
Sat 09:06:27 PM 38.5840 -120.6120 64° Northeast 452 520 38,400 1,482 Climbing FlightAware ADS-B
Sat 09:07:12 PM 38.6240 -120.5030 65° Northeast 446 513 39,500 1,341 Climbing FlightAware ADS-B
Sat 09:07:52 PM 38.6590 -120.4090 64° Northeast 445 512 40,300 1,059 Climbing FlightAware ADS-B
Sat 09:08:37 PM 38.6960 -120.3070 65° Northeast 439 505 41,000 494 Climbing FlightAware ADS-B
Sat 09:09:17 PM 38.7310 -120.2120 65° Northeast 436 502 41,000  Level FlightAware ADS-B
Sat 09:09:57 PM 38.7640 -120.1220 65° Northeast 437 503 41,000  Level FlightAware ADS-B
Sat 09:10:42 PM 38.8050 -120.0100 65° Northeast 437 503 41,000  Level FlightAware ADS-B
Sat 09:11:22 PM 38.8390 -119.9140 66° East 436 502 41,000  Level FlightAware ADS-B
Sat 09:12:07 PM 38.8760 -119.8140 65° Northeast 436 502 41,000  Level FlightAware ADS-B
Sat 09:13:02 PM 38.9190 -119.6950 65° Northeast 433 498 41,000  Level FlightAware ADS-B
Sat 09:13:42 PM 38.9550 -119.5940 65° Northeast 431 496 41,000  Level FlightAware ADS-B
Sat 09:14:27 PM 38.9910 -119.4920 66° East 429 494 41,000  Level FlightAware ADS-B
Sat 09:15:07 PM 39.0250 -119.3970 65° Northeast 426 490 41,000  Level FlightAware ADS-B
Sat 09:15:47 PM 39.0560 -119.3120 65° Northeast 426 490 41,000  Level FlightAware ADS-B
Sat 09:16:32 PM 39.0480 -119.3320 243° Southwest 426 490 41,000  Level FlightAware ADS-B
Sat 09:17:12 PM 39.1240 -119.1180 65° Northeast 421 484 41,000  Level FlightAware ADS-B
Sat 09:17:57 PM 39.1580 -119.0200 66° East 415 478 41,000  Level FlightAware ADS-B
Sat 09:18:37 PM 39.1840 -118.9430 66° East 415 478 41,000  Level FlightAware ADS-B
Sat 09:19:17 PM 39.2110 -118.8670 65° Northeast 415 478 41,000  Level FlightAware ADS-B
Sat 09:19:57 PM 39.2370 -118.7900 66° East 415 478 41,000  Level FlightAware ADS-B
Sat 09:20:37 PM 39.2640 -118.7130 66° East 415 478 41,000  Level FlightAware ADS-B
Sat 09:21:27 PM 39.2970 -118.6160 66° East 415 478 41,000  Level FlightAware ADS-B
Sat 09:22:07 PM 39.3240 -118.5390 66° East 415 478 41,000  Level FlightAware ADS-B
Sat 09:22:47 PM 39.3500 -118.4620 66° East 415 478 41,000  Level FlightAware ADS-B
Sat 09:23:27 PM 39.3770 -118.3850 66° East 415 478 41,000  Level FlightAware ADS-B
Sat 09:24:07 PM 39.4030 -118.3080 66° East 415 478 41,000  Level FlightAware ADS-B
Sat 09:24:57 PM 39.4360 -118.2110 66° East 415 478 41,000  Level FlightAware ADS-B
Sat 09:25:37 PM 39.4630 -118.1340 66° East 415 478 41,000  Level FlightAware ADS-B
Sat 09:26:17 PM 39.4890 -118.0570 66° East 415 478 41,000  Level FlightAware ADS-B
Sat 09:26:57 PM 39.5160 -117.9790 66° East 415 478 41,000  Level FlightAware ADS-B
Sat 09:27:44 PM 39.6242 -117.6736 66° East 411 473 41,000  Level Oakland Center
Sat 09:28:45 PM 39.6697 -117.5378 66° East 411 473 41,000  Level Oakland Center
Sat 09:29:46 PM 39.7117 -117.4108 67° East 415 478 41,000  Level Oakland Center
Sat 09:30:47 PM 39.7622 -117.2592 67° East 412 474 41,000  Level Oakland Center
Sat 09:31:48 PM 39.8056 -117.1275 67° East 415 478 41,000  Level Oakland Center
Sat 09:32:49 PM 39.8481 -116.9964 67° East 414 476 41,000  Level Oakland Center
Sat 09:33:50 PM 39.8983 -116.8431 67° East 415 478 41,000  Level Oakland Center
Sat 09:34:51 PM 39.9408 -116.7111 67° East 415 478 41,000  Level Oakland Center
Sat 09:35:51 PM 39.9833 -116.5789 67° East 415 478 41,000  Level Oakland Center
Sat 09:36:52 PM 40.0336 -116.4239 67° East 418 481 41,000  Level Oakland Center
Sat 09:37:58 PM 40.0833 -116.2678 67° East 417 480 41,000  Level Salt Lake Center
Sat 09:38:59 PM 40.1267 -116.1322 67° East 422 486 41,000  Level Salt Lake Center
Sat 09:40:00 PM 40.1697 -115.9972 67° East 422 486 41,000  Level Salt Lake Center
Sat 09:41:01 PM 40.2189 -115.8400 68° East 420 483 41,000  Level Salt Lake Center
Sat 09:42:02 PM 40.2611 -115.7053 68° East 420 483 41,000  Level Salt Lake Center
Sat 09:43:03 PM 40.3117 -115.5483 67° East 420 483 41,000  Level Salt Lake Center
Sat 09:44:04 PM 40.3528 -115.4142 68° East 417 480 41,000  Level Salt Lake Center
Sat 09:45:05 PM 40.3942 -115.2808 68° East 415 478 41,000  Level Salt Lake Center
Sat 09:46:05 PM 40.4431 -115.1247 68° East 415 478 41,000  Level Salt Lake Center
Sat 09:47:06 PM 40.4822 -114.9911 69° East 411 473 41,000  Level Salt Lake Center
Sat 09:48:07 PM 40.5228 -114.8575 68° East 412 474 41,000  Level Salt Lake Center
Sat 09:49:08 PM 40.5664 -114.7128 68° East 412 474 41,000  Level Salt Lake Center
Sat 09:50:09 PM 40.6094 -114.5708 68° East 416 479 41,000  Level Salt Lake Center
Sat 09:51:10 PM 40.6519 -114.4317 68° East 411 473 41,000  Level Salt Lake Center
Sat 09:52:11 PM 40.6942 -114.2867 69° East 422 486 41,000  Level Salt Lake Center
Sat 09:53:12 PM 40.7369 -114.1442 68° East 420 483 41,000  Level Salt Lake Center
Sat 09:54:13 PM 40.7875 -113.9717 69° East 421 484 41,000  Level Salt Lake Center
Sat 09:55:14 PM 40.8286 -113.8281 69° East 420 483 41,000  Level Salt Lake Center
Sat 09:56:15 PM 40.8708 -113.6850 69° East 419 482 41,000  Level Salt Lake Center
Sat 09:57:16 PM 40.9131 -113.5397 69° East 423 487 41,000  Level Salt Lake Center
Sat 10:03:07 PM 41.1400 -112.7130 69° East 421 484 41,000  Level FlightAware ADS-B
Sat 10:03:52 PM 41.1720 -112.5980 70° East 422 486 41,000  Level FlightAware ADS-B
Sat 10:04:37 PM 41.2020 -112.4910 70° East 422 486 41,000  Level FlightAware ADS-B
Sat 10:05:17 PM 41.2290 -112.3920 70° East 421 484 41,000  Level FlightAware ADS-B
Sat 10:06:02 PM 41.2590 -112.2830 70° East 420 483 41,000  Level FlightAware ADS-B
Sat 10:06:42 PM 41.2850 -112.1860 70° East 420 483 41,000  Level FlightAware ADS-B
Sat 10:07:22 PM 41.3110 -112.0890 70° East 417 480 41,000  Level FlightAware ADS-B
Sat 10:08:07 PM 41.3400 -111.9820 70° East 418 481 41,000  Level FlightAware ADS-B
Sat 10:08:47 PM 41.3650 -111.8920 70° East 418 481 41,000  Level FlightAware ADS-B
Sat 10:09:27 PM 41.3880 -111.8100 69° East 418 481 41,000  Level FlightAware ADS-B
Sat 10:10:07 PM 41.4100 -111.7280 70° East 418 481 41,000  Level FlightAware ADS-B
Sat 10:10:47 PM 41.4330 -111.6450 70° East 418 481 41,000  Level FlightAware ADS-B
Sat 10:11:37 PM 41.4610 -111.5420 70° East 418 481 41,000  Level FlightAware ADS-B
Sat 10:12:17 PM 41.4830 -111.4600 70° East 418 481 41,000  Level FlightAware ADS-B
Sat 10:12:57 PM 41.5060 -111.3770 70° East 418 481 41,000  Level FlightAware ADS-B
Sat 10:13:37 PM 41.5280 -111.2950 70° East 418 481 41,000  Level FlightAware ADS-B
Sat 10:14:27 PM 41.5560 -111.1910 70° East 418 481 41,000  Level FlightAware ADS-B
Sat 10:15:07 PM 41.5790 -111.1090 69° East 418 481 41,000  Level FlightAware ADS-B
Sat 10:15:47 PM 41.6010 -111.0260 70° East 418 481 41,000  Level FlightAware ADS-B
Sat 10:16:27 PM 41.6240 -110.9440 69° East 418 481 41,000  Level FlightAware ADS-B
Sat 10:17:07 PM 41.6460 -110.8610 70° East 418 481 41,000  Level FlightAware ADS-B
Sat 10:17:57 PM 41.6740 -110.7580 70° East 418 481 41,000  Level FlightAware ADS-B
Sat 10:18:36 PM 41.7486 -110.4550 70° East 413 475 41,000  Level Salt Lake Center
Sat 10:19:37 PM 41.7836 -110.3158 71° East 412 474 41,000  Level Salt Lake Center
Sat 10:20:38 PM 41.8192 -110.1742 71° East 416 479 41,000  Level Salt Lake Center
Sat 10:21:39 PM 41.8617 -110.0089 71° East 419 482 41,000  Level Salt Lake Center
Sat 10:22:40 PM 41.8975 -109.8661 71° East 421 484 41,000  Level Salt Lake Center
Sat 10:23:41 PM 41.9325 -109.7228 72° East 421 484 41,000  Level Salt Lake Center
Sat 10:24:42 PM 41.9736 -109.5553 72° East 421 484 41,000  Level Salt Lake Center
Sat 10:25:43 PM 42.0094 -109.4114 71° East 423 487 41,000  Level Salt Lake Center
Sat 10:26:44 PM 42.0444 -109.2686 72° East 420 483 41,000  Level Salt Lake Center
Sat 10:27:45 PM 42.0858 -109.1006 72° East 421 484 41,000  Level Salt Lake Center
Sat 10:28:46 PM 42.1197 -108.9564 72° East 421 484 41,000  Level Salt Lake Center
Sat 10:29:47 PM 42.1547 -108.8106 72° East 426 490 41,000  Level Salt Lake Center
Sat 10:30:48 PM 42.1956 -108.6411 72° East 426 490 41,000  Level Salt Lake Center
Sat 10:31:49 PM 42.2289 -108.4967 73° East 421 484 41,000  Level Salt Lake Center
Sat 10:32:50 PM 42.2611 -108.3506 73° East 424 488 41,000  Level Salt Lake Center
Sat 10:33:51 PM 42.2994 -108.1833 73° East 419 482 41,000  Level Salt Lake Center
Sat 10:34:52 PM 42.3322 -108.0397 73° East 417 480 41,000  Level Salt Lake Center
Sat 10:35:53 PM 42.3653 -107.8972 73° East 416 479 41,000  Level Salt Lake Center
Sat 10:36:54 PM 42.4022 -107.7300 73° East 417 480 41,000  Level Salt Lake Center
Sat 10:37:55 PM 42.4347 -107.5867 73° East 417 480 41,000  Level Salt Lake Center
Sat 10:38:56 PM 42.4672 -107.4414 73° East 421 484 41,000  Level Salt Lake Center
Sat 10:39:28 PM 42.4894 -107.3442 73° East 422 486 41,000  Level Denver Center
Sat 10:40:29 PM 42.5211 -107.1981 74° East 421 484 41,000  Level Denver Center
Sat 10:41:30 PM 42.5592 -107.0289 73° East 421 484 41,000  Level Denver Center
Sat 10:42:31 PM 42.5908 -106.8828 74° East 422 486 41,000  Level Denver Center
Sat 10:43:32 PM 42.6244 -106.7269 74° East 421 484 41,000  Level Denver Center
Sat 10:44:32 PM 42.6564 -106.5797 74° East 423 487 41,000  Level Denver Center
Sat 10:45:33 PM 42.6928 -106.4089 74° East 423 487 41,000  Level Denver Center
Sat 10:46:34 PM 42.7244 -106.2633 73° East 420 483 41,000  Level Denver Center
Sat 10:47:35 PM 42.7544 -106.1169 74° East 420 483 41,000  Level Denver Center
Sat 10:53:28 PM 42.9344 -105.2080 74° East 41,000  Level FlightAware ADS-B
Sat 10:53:31 PM 42.9361 -105.2000 74° East 417 480 41,000  Level FlightAware ADS-B
Sat 10:54:02 PM 42.9517 -105.1230 75° East 419 482 41,000  Level FlightAware ADS-B
Sat 10:54:32 PM 42.9673 -105.0440 75° East 420 483 41,000  Level FlightAware ADS-B
Sat 10:55:03 PM 42.9828 -104.9670 75° East 421 484 41,000  Level FlightAware ADS-B
Sat 10:55:33 PM 42.9983 -104.8890 75° East 421 484 41,000  Level FlightAware ADS-B
Sat 10:56:07 PM 43.0154 -104.8030 75° East 421 484 41,000  Level FlightAware ADS-B
Sat 10:56:41 PM 43.0331 -104.7140 75° East 422 486 41,000  Level FlightAware ADS-B
Sat 10:57:19 PM 43.0523 -104.6170 75° East 424 488 41,000  Level FlightAware ADS-B
Sat 10:57:51 PM 43.0688 -104.5330 75° East 425 489 41,000  Level FlightAware ADS-B
Sat 10:58:35 PM 43.0908 -104.4200 75° East 426 490 41,000  Level FlightAware ADS-B
Sat 10:59:10 PM 43.1083 -104.3300 75° East 423 487 41,000  Level FlightAware ADS-B
Sat 10:59:46 PM 43.1265 -104.2360 75° East 424 488 41,000  Level FlightAware ADS-B
Sat 11:00:26 PM 43.1462 -104.1330 75° East 424 488 41,000  Level FlightAware ADS-B
Sat 11:00:56 PM 43.1613 -104.0550 75° East 425 489 41,000  Level FlightAware ADS-B
Sat 11:01:27 PM 43.1763 -103.9750 76° East 426 490 41,000  Level FlightAware ADS-B
Sat 11:01:57 PM 43.1912 -103.8970 75° East 427 491 41,000  Level FlightAware ADS-B
Sat 11:02:28 PM 43.2065 -103.8170 75° East 430 495 41,000  Level FlightAware ADS-B
Sat 11:02:58 PM 43.2214 -103.7380 75° East 432 497 41,000  Level FlightAware ADS-B
Sat 11:03:28 PM 43.2367 -103.6560 76° East 434 499 41,000  Level FlightAware ADS-B
Sat 11:04:11 PM 43.2578 -103.5410 76° East 434 499 41,000  Level FlightAware ADS-B
Sat 11:04:51 PM 43.2775 -103.4350 76° East 434 499 41,000  Level FlightAware ADS-B
Sat 11:05:37 PM 43.3000 -103.3120 76° East 435 501 41,000  Level FlightAware ADS-B
Sat 11:06:29 PM 43.3251 -103.1750 76° East 435 501 41,000  Level FlightAware ADS-B
Sat 11:06:49 PM 43.3375 -103.1225 76° East 439 505 41,000  Level Denver Center
Sat 11:07:49 PM 43.3642 -102.9697 76° East 434 499 41,000  Level Denver Center
Sat 11:08:50 PM 43.3958 -102.7886 76° East 435 501 41,000  Level Denver Center
Sat 11:09:51 PM 43.4244 -102.6319 76° East 440 506 41,000  Level Denver Center
Sat 11:10:52 PM 43.4506 -102.4756 77° East 440 506 41,000  Level Denver Center
Sat 11:11:52 PM 43.4808 -102.2939 77° East 438 504 41,000  Level Denver Center
Sat 11:12:53 PM 43.5081 -102.1392 76° East 436 502 41,000  Level Denver Center
Sat 11:13:54 PM 43.5347 -101.9781 77° East 442 509 41,000  Level Denver Center
Sat 11:14:54 PM 43.5619 -101.8136 77° East 443 510 41,000  Level Denver Center
Sat 11:15:55 PM 43.5903 -101.6481 77° East 444 511 41,000  Level Denver Center
Sat 11:16:55 PM 43.6175 -101.4822 77° East 444 511 41,000  Level Denver Center
Sat 11:17:56 PM 43.6439 -101.3147 78° East 447 514 41,000  Level Denver Center
Sat 11:18:27 PM 43.6594 -101.2167 78° East 446 513 41,000  Level Minneapolis Center
Sat 11:19:27 PM 43.6875 -101.0506 77° East 445 512 41,000  Level Minneapolis Center
Sat 11:20:28 PM 43.7139 -100.8828 78° East 448 516 41,000  Level Minneapolis Center
Sat 11:21:28 PM 43.7403 -100.7136 78° East 451 519 41,000  Level Minneapolis Center
Sat 11:21:59 PM 43.7561 -100.6117 78° East 447 514 41,000  Level Denver Center
Sat 11:22:59 PM 43.7817 -100.4447 78° East 446 513 41,000  Level Denver Center
Sat 11:24:00 PM 43.8072 -100.2758 78° East 449 517 41,000  Level Denver Center
Sat 11:24:30 PM 43.8183 -100.2097 77° East 449 517 41,000  Level Minneapolis Center
Sat 11:25:42 PM 43.8433 -100.0414 78° East 448 516 41,000  Level Minneapolis Center
Sat 11:26:43 PM 43.8733 -99.8425 78° East 445 512 41,000  Level Minneapolis Center
Sat 11:27:43 PM 43.8972 -99.6764 79° East 443 510 41,000  Level Minneapolis Center
Sat 11:28:44 PM 43.9214 -99.5114 78° East 441 507 41,000  Level Minneapolis Center
Sat 11:29:44 PM 43.9444 -99.3447 79° East 441 507 41,000  Level Minneapolis Center
Sat 11:30:44 PM 43.9689 -99.1767 79° East 445 512 41,000  Level Minneapolis Center
Sat 11:36:02 PM 44.0930 -98.2730 79° East 443 510 41,000  Level FlightAware ADS-B
Sat 11:36:47 PM 44.1160 -98.1460 76° East 443 510 41,000  Level FlightAware ADS-B
Sat 11:37:27 PM 44.1350 -98.0380 76° East 443 510 41,000  Level FlightAware ADS-B
Sat 11:38:12 PM 44.1570 -97.9120 76° East 445 512 41,000  Level FlightAware ADS-B
Sat 11:38:52 PM 44.1770 -97.7960 76° East 446 513 41,000  Level FlightAware ADS-B
Sat 11:39:32 PM 44.1960 -97.6870 76° East 448 516 41,000  Level FlightAware ADS-B
Sat 11:40:17 PM 44.2170 -97.5630 77° East 451 519 41,000  Level FlightAware ADS-B
Sat 11:41:02 PM 44.2390 -97.4310 77° East 452 520 41,000  Level FlightAware ADS-B
Sat 11:41:42 PM 44.2580 -97.3190 77° East 454 522 41,000  Level FlightAware ADS-B
Sat 11:42:22 PM 44.2770 -97.2050 77° East 455 524 41,000  Level FlightAware ADS-B
Sat 11:43:07 PM 44.2980 -97.0790 77° East 456 525 41,000  Level FlightAware ADS-B
Sat 11:43:47 PM 44.3170 -96.9650 77° East 457 526 41,000  Level FlightAware ADS-B
Sat 11:44:27 PM 44.3360 -96.8490 77° East 457 526 41,000  Level FlightAware ADS-B
Sat 11:45:12 PM 44.3580 -96.7150 77° East 460 529 41,000  Level FlightAware ADS-B
Sat 11:45:52 PM 44.3760 -96.6010 78° East 461 531 41,000  Level FlightAware ADS-B
Sat 11:46:37 PM 44.3970 -96.4740 77° East 460 529 41,000  Level FlightAware ADS-B
Sat 11:47:17 PM 44.4150 -96.3570 78° East 459 528 41,000  Level FlightAware ADS-B
Sat 11:48:02 PM 44.4360 -96.2260 77° East 458 527 41,000  Level FlightAware ADS-B
Sat 11:48:42 PM 44.4550 -96.1090 77° East 459 528 41,000  Level FlightAware ADS-B
Sat 11:49:22 PM 44.4730 -95.9930 78° East 461 531 41,000  Level FlightAware ADS-B
Sat 11:50:02 PM 44.4910 -95.8750 78° East 463 533 41,000 -494 Level FlightAware ADS-B
Sat 11:50:47 PM 44.5110 -95.7480 78° East 459 528 40,300 -1,694 Descending FlightAware ADS-B
Sat 11:51:27 PM 44.5290 -95.6300 78° East 457 526 38,600 -2,682 Descending FlightAware ADS-B
Sat 11:52:12 PM 44.5480 -95.5020 78° East 457 526 36,500 -2,753 Descending FlightAware ADS-B
Sat 11:52:52 PM 44.5660 -95.3850 78° East 453 521 34,700 -2,612 Descending FlightAware ADS-B
Sat 11:53:37 PM 44.5850 -95.2560 78° East 439 505 32,800 -2,400 Descending FlightAware ADS-B
Sat 11:54:17 PM 44.6020 -95.1470 78° East 427 491 31,300 -2,250 Descending FlightAware ADS-B
Sat 11:54:57 PM 44.6180 -95.0380 78° East 416 479 29,800 -2,188 Descending FlightAware ADS-B
Sat 11:55:42 PM 44.6350 -94.9250 78° East 406 467 28,200 -2,118 Descending FlightAware ADS-B
Sat 11:56:22 PM 44.6500 -94.8230 78° East 396 456 26,800 -2,118 Descending FlightAware ADS-B
Sat 11:57:07 PM 44.6660 -94.7090 79° East 385 443 25,200 -2,118 Descending FlightAware ADS-B
Sat 11:57:47 PM 44.6800 -94.6120 78° East 375 432 23,800 -1,976 Descending FlightAware ADS-B
Sat 11:58:32 PM 44.6950 -94.5080 78° East 366 421 22,400 -1,906 Descending FlightAware ADS-B
Sat 11:59:12 PM 44.7090 -94.4160 78° East 358 412 21,100 -1,950 Descending FlightAware ADS-B
Sat 11:59:52 PM 44.7210 -94.3260 79° East 351 404 19,800 -1,906 Descending FlightAware ADS-B
Sun 12:00:37 AM 44.7360 -94.2240 78° East 345 397 18,400 -1,835 Descending FlightAware ADS-B
Sun 12:01:17 AM 44.7390 -94.1350 87° East 342 394 17,200 -1,835 Descending FlightAware ADS-B
Sun 12:02:02 AM 44.7430 -94.0380 87° East 335 386 15,800 -2,047 Descending FlightAware ADS-B
Sun 12:02:42 AM 44.7460 -93.9540 87° East 340 391 14,300 -2,250 Descending FlightAware ADS-B
Sun 12:03:22 AM 44.7490 -93.8640 87° East 337 388 12,800 -2,118 Descending FlightAware ADS-B
Sun 12:04:07 AM 44.7520 -93.7650 88° East 325 374 11,300 -1,906 Descending FlightAware ADS-B
Sun 12:04:47 AM 44.7550 -93.6820 87° East 316 364 10,100 -1,527 Descending FlightAware ADS-B
Sun 12:05:02 AM 44.7560 -93.6530 87° East 306 352 9,900 -1,067 Descending FlightAware ADS-B
Sun 12:05:32 AM 44.7580 -93.5950 87° East 291 335 9,300 -1,309 Descending FlightAware ADS-B
Sun 12:05:57 AM 44.7590 -93.5470 88° East 285 328 8,700 -1,418 Descending FlightAware ADS-B
Sun 12:06:27 AM 44.7610 -93.4910 87° East 279 321 8,000 -1,467 Descending FlightAware ADS-B
Sun 12:06:42 AM 44.7620 -93.4660 87° East 277 319 7,600 -1,350 Descending FlightAware ADS-B
Sun 12:07:07 AM 44.7630 -93.4250 88° East 271 312 7,100 -1,418 Descending FlightAware ADS-B
Sun 12:07:37 AM 44.7650 -93.3680 87° East 260 299 6,300 -1,418 Descending FlightAware ADS-B
Sun 12:08:02 AM 44.7660 -93.3290 88° East 255 293 5,800 -982 Descending FlightAware ADS-B
Sun 12:08:32 AM 44.7680 -93.2800 87° East 236 272 5,400 -655 Descending FlightAware ADS-B
Sun 12:08:57 AM 44.7690 -93.2430 88° East 220 253 5,200 -600 Descending FlightAware ADS-B
Sun 12:09:12 AM 44.7700 -93.2220 86° East 214 246 5,000 -1,000 Descending FlightAware ADS-B
Sun 12:09:27 AM 44.7670 -93.2000 101° East 222 255 4,700 -1,067 Descending FlightAware ADS-B
Sun 12:09:57 AM 44.7570 -93.1590 109° East 225 259 4,200 -1,067 Descending FlightAware ADS-B
Sun 12:10:12 AM 44.7520 -93.1400 110° East 227 261 3,900 -1,200 Descending FlightAware ADS-B
Sun 12:10:37 AM 44.7430 -93.1030 109° East 228 262 3,400 -1,029 Descending FlightAware ADS-B
Sun 12:10:47 AM 44.7410 -93.0890 101° East 219 252 3,300 -200 Descending FlightAware ADS-B
Sun 12:11:07 AM 44.7480 -93.0660 67° East 183 211 3,300  Level FlightAware ADS-B
Sun 12:11:17 AM 44.7540 -93.0580 43° Northeast 174 200 3,300  Level FlightAware ADS-B
Sun 12:11:32 AM 44.7640 -93.0510 26° Northeast 167 192 3,300  Level FlightAware ADS-B
Sun 12:11:47 AM 44.7760 -93.0500 North 157 181 3,300  Level FlightAware ADS-B
Sun 12:12:02 AM 44.7860 -93.0540 344° North 153 176 3,300 -400 Level FlightAware ADS-B
Sun 12:12:17 AM 44.7950 -93.0630 325° Northwest 154 177 3,100 -600 Descending FlightAware ADS-B
Sun 12:12:42 AM 44.8050 -93.0830 305° West 157 181 2,900 -600 Descending FlightAware ADS-B
Sun 12:12:57 AM 44.8110 -93.0960 303° West 158 182 2,700 -900 Descending FlightAware ADS-B
Sun 12:13:22 AM 44.8200 -93.1180 300° West 156 180 2,300 -873 Descending FlightAware ADS-B
Sun 12:13:52 AM 44.8310 -93.1440 301° West 151 174 1,900 -700 Descending FlightAware ADS-B
Sun 12:14:22 AM 44.8410 -93.1660 303° West 136 157 1,600 -764 Descending FlightAware ADS-B
Sun 12:14:47 AM 44.8500 -93.1860 302° West 127 146 1,200 -764 Descending FlightAware ADS-B
Sun 12:15:17 AM 44.8590 -93.2070 301° West 131 151 900 -600 Descending FlightAware ADS-B
Sun 12:15:47 AM 44.8680 -93.2280 301° West 131 151 600 -600 Descending FlightAware ADS-B

Login

Don't have an account? Register now (free) for customized features, flight alerts, and more!